Time;durP1;ratioP1;P1;durP2;ratioP2;P2;SDS_P1;SDS_P2;PMS_P1;PMS_P2;Temp;Humidity;BMP_temperature;BMP_pressure;BME280_temperature;BME280_humidity;BME280_pressure;Samples;Min_cycle;Max_cycle;Signal;HPM_P1;HPM_P2
2021/11/22 05:01:10;;;;;;;32.47;21.98;;;;;;;-0.19;100.00;94900.41;5682323;23;20590;-71
2021/11/22 05:03:35;;;;;;;34.67;22.20;;;;;;;-0.23;100.00;94900.72;4940030;29;20044;-71
2021/11/22 05:06:00;;;;;;;37.88;26.88;;;;;;;-0.37;100.00;94901.69;4944765;29;20028;-71
2021/11/22 05:08:26;;;;;;;38.47;25.23;;;;;;;-0.36;100.00;94917.75;4930234;29;20027;-71
2021/11/22 05:10:51;;;;;;;37.15;25.92;;;;;;;-0.59;100.00;94929.50;4943632;29;20023;-71
2021/11/22 05:13:21;;;;;;;31.67;21.85;;;;;;;-0.59;100.00;94939.69;4953744;28;20438;-71
2021/11/22 05:15:48;;;;;;;36.08;24.13;;;;;;;-0.60;100.00;94949.03;4966512;28;20053;-71
2021/11/22 05:18:15;;;;;;;32.65;23.25;;;;;;;-0.90;100.00;94948.53;4968056;28;20030;-71
2021/11/22 05:20:42;;;;;;;33.15;22.42;;;;;;;-0.70;100.00;95006.50;4967352;28;20081;-71
2021/11/22 05:23:09;;;;;;;38.35;25.55;;;;;;;-0.65;100.00;95006.19;4968312;28;20433;-71
2021/11/22 05:25:35;;;;;;;31.95;21.13;;;;;;;-0.65;100.00;94991.75;4966922;28;20026;-71
2021/11/22 05:28:00;;;;;;;36.25;22.85;;;;;;;-0.83;100.00;94990.41;4949439;28;20094;-71
2021/11/22 05:30:26;;;;;;;32.22;20.33;;;;;;;-1.02;100.00;94989.19;4941900;28;20126;-71
2021/11/22 05:32:54;;;;;;;32.78;21.45;;;;;;;-0.76;100.00;95001.81;4940944;29;20028;-71
2021/11/22 05:35:19;;;;;;;40.70;25.17;;;;;;;-0.65;100.00;95007.00;4958968;28;20407;-71
2021/11/22 05:37:45;;;;;;;40.50;24.15;;;;;;;-0.67;100.00;95013.91;4947426;29;20023;-71
2021/11/22 05:40:11;;;;;;;42.08;25.70;;;;;;;-0.70;100.00;95020.91;4946645;29;20102;-71
2021/11/22 05:42:36;;;;;;;41.20;26.17;;;;;;;-0.74;100.00;95030.47;4949312;28;20030;-71
2021/11/22 05:45:04;;;;;;;65.35;28.77;;;;;;;-0.82;100.00;95032.72;4949417;28;20029;-71
2021/11/22 05:47:29;;;;;;;66.28;30.00;;;;;;;-0.71;100.00;95037.09;4955935;28;20476;-71
2021/11/22 05:50:02;;;;;;;62.53;31.92;;;;;;;-0.66;100.00;95030.81;4968101;28;20117;-72
2021/11/22 05:52:28;;;;;;;70.95;34.47;;;;;;;-0.60;100.00;95027.84;4951999;28;20038;-71
2021/11/22 05:54:55;;;;;;;83.72;39.55;;;;;;;-0.65;100.00;95034.97;4967979;28;20031;-71
2021/11/22 05:57:22;;;;;;;54.00;30.02;;;;;;;-0.60;100.00;95035.47;4967593;28;20027;-71
2021/11/22 05:59:48;;;;;;;59.10;30.50;;;;;;;-0.32;100.00;95016.63;4966504;28;20030;-72
2021/11/22 06:02:13;;;;;;;138.32;43.10;;;;;;;-0.25;100.00;94999.22;4967853;28;20487;-72
2021/11/22 06:04:39;;;;;;;67.68;32.30;;;;;;;0.15;100.00;94997.28;4966184;28;20066;-72
2021/11/22 06:07:04;;;;;;;61.60;33.78;;;;;;;0.39;100.00;94967.53;4967700;28;20085;-72
2021/11/22 06:09:30;;;;;;;72.95;38.33;;;;;;;0.82;100.00;94934.69;4965973;28;20034;-72
2021/11/22 06:11:55;;;;;;;78.95;41.50;;;;;;;1.18;100.00;94875.06;4968235;28;20027;-72
2021/11/22 06:14:21;;;;;;;66.25;37.35;;;;;;;1.18;100.00;94812.13;4964323;28;20030;-71
2021/11/22 06:16:47;;;;;;;60.85;35.75;;;;;;;1.47;100.00;94810.69;4947542;29;20074;-72
2021/11/22 06:19:12;;;;;;;53.67;33.47;;;;;;;1.86;100.00;94793.19;4948328;29;20035;-72
2021/11/22 06:21:38;;;;;;;55.80;33.53;;;;;;;1.69;100.00;94783.50;4947817;28;20138;-72
2021/11/22 06:24:04;;;;;;;43.30;26.23;;;;;;;1.55;100.00;94756.50;4954818;28;20038;-72
2021/11/22 06:26:32;;;;;;;36.53;23.65;;;;;;;2.03;100.00;94764.53;4959951;28;20038;-71
2021/11/22 06:28:58;;;;;;;40.03;25.13;;;;;;;2.35;100.00;94752.50;4968008;28;20476;-72
2021/11/22 06:31:24;;;;;;;34.85;21.60;;;;;;;2.96;99.54;94737.16;4966507;28;20031;-71
2021/11/22 06:33:49;;;;;;;31.45;19.38;;;;;;;3.97;94.25;94718.00;4950978;28;20159;-71
2021/11/22 06:36:15;;;;;;;35.08;21.13;;;;;;;4.61;89.18;94697.59;4967174;28;20508;-71
2021/11/22 06:38:40;;;;;;;39.65;28.98;;;;;;;4.72;88.55;94699.97;4941788;29;20053;-72
2021/11/22 06:41:06;;;;;;;34.40;24.50;;;;;;;5.65;85.67;94684.25;4964360;28;20026;-72
2021/11/22 06:43:32;;;;;;;42.88;30.00;;;;;;;6.03;81.71;94679.78;4967543;28;20130;-71
2021/11/22 06:45:57;;;;;;;44.70;31.80;;;;;;;4.34;88.84;94697.53;4972235;28;20523;-71
2021/11/22 06:48:22;;;;;;;29.85;21.50;;;;;;;5.04;89.13;94699.53;4966138;28;20039;-72
2021/11/22 06:50:48;;;;;;;26.48;19.45;;;;;;;5.18;88.29;94698.25;4967585;28;20027;-71
2021/11/22 06:53:14;;;;;;;43.45;30.90;;;;;;;6.08;84.99;94688.66;4967082;28;20118;-71
2021/11/22 06:55:39;;;;;;;218.23;144.55;;;;;;;7.68;78.23;94668.84;4950510;28;20110;-71
2021/11/22 06:58:05;;;;;;;81.15;50.38;;;;;;;7.11;77.35;94670.53;4951399;28;20057;-71
2021/11/22 07:00:30;;;;;;;32.70;25.92;;;;;;;6.72;80.28;94667.66;4967854;28;20023;-71
2021/11/22 07:02:56;;;;;;;28.38;23.23;;;;;;;6.51;83.45;94669.00;4950667;29;20051;-70
2021/11/22 07:05:23;;;;;;;32.88;24.65;;;;;;;7.64;80.00;94667.56;4963077;28;20519;-71
2021/11/22 07:07:49;;;;;;;29.95;24.00;;;;;;;7.29;78.49;94654.94;4957715;28;20028;-71
2021/11/22 07:10:16;;;;;;;31.20;22.75;;;;;;;6.84;84.33;94656.09;4966212;28;20046;-71
2021/11/22 07:12:42;;;;;;;25.15;19.95;;;;;;;7.53;81.77;94656.75;4970495;28;20027;-71
2021/11/22 07:15:08;;;;;;;25.65;22.10;;;;;;;7.64;82.37;94674.50;4970551;28;20431;-71
2021/11/22 07:17:33;;;;;;;27.05;22.88;;;;;;;8.06;80.82;94666.63;4970919;28;20026;-71
2021/11/22 07:19:59;;;;;;;32.35;23.80;;;;;;;8.84;76.37;94660.66;4971759;28;20019;-71
2021/11/22 07:22:25;;;;;;;35.65;31.58;;;;;;;9.20;75.65;94662.75;4953322;28;20031;-70
2021/11/22 07:24:50;;;;;;;23.17;20.67;;;;;;;7.91;80.03;94662.09;4963971;28;20614;-71
2021/11/22 07:27:17;;;;;;;29.63;24.80;;;;;;;7.17;85.82;94658.78;4951113;28;20024;-71
2021/11/22 07:29:43;;;;;;;27.15;24.20;;;;;;;9.10;77.78;94659.56;4951204;29;20466;-71
2021/11/22 07:32:09;;;;;;;23.90;21.50;;;;;;;10.11;73.18;94650.66;4951944;28;20031;-71
2021/11/22 07:34:36;;;;;;;22.50;20.20;;;;;;;10.70;70.01;94643.75;4961865;28;20075;-71
2021/11/22 07:37:03;;;;;;;23.10;20.70;;;;;;;10.23;72.29;94643.28;4970850;28;20019;-71
2021/11/22 07:39:28;;;;;;;21.58;19.38;;;;;;;13.27;61.97;94652.03;4968830;28;20069;-71
2021/11/22 07:41:56;;;;;;;19.65;17.75;;;;;;;13.60;60.06;94647.75;4966987;28;20110;-71
2021/11/22 07:44:23;;;;;;;18.77;17.13;;;;;;;14.04;58.12;94635.00;4950558;28;20027;-71
2021/11/22 07:46:49;;;;;;;17.42;15.68;;;;;;;13.16;58.42;94643.78;4950360;28;20039;-71
2021/11/22 07:49:14;;;;;;;15.60;14.18;;;;;;;12.62;62.47;94653.28;4949935;29;20023;-71
2021/11/22 07:51:41;;;;;;;15.38;14.02;;;;;;;14.74;55.70;94650.00;4950448;29;20035;-71
2021/11/22 07:54:07;;;;;;;14.52;13.32;;;;;;;13.93;59.25;94647.81;4952108;28;20386;-71
2021/11/22 07:56:32;;;;;;;13.95;12.57;;;;;;;15.44;53.44;94637.16;4949227;29;20042;-71
2021/11/22 07:58:58;;;;;;;14.07;12.90;;;;;;;15.03;54.68;94648.75;4950700;29;20034;-71
2021/11/22 08:01:24;;;;;;;13.13;12.13;;;;;;;14.98;54.69;94652.97;4948731;29;20059;-71
2021/11/22 08:03:50;;;;;;;14.00;12.70;;;;;;;14.49;55.42;94648.25;4950815;29;20098;-71
2021/11/22 08:06:16;;;;;;;15.52;14.23;;;;;;;16.24;51.71;94654.78;4956071;28;20031;-71
2021/11/22 08:08:42;;;;;;;16.13;14.77;;;;;;;16.00;51.87;94655.53;4934889;29;20113;-71
2021/11/22 08:13:34;;;;;;;17.05;15.45;;;;;;;15.31;53.70;94648.47;4950236;29;20027;-71
2021/11/22 08:16:02;;;;;;;18.50;16.70;;;;;;;16.14;51.87;94652.63;4950331;29;20477;-71
2021/11/22 08:18:27;;;;;;;16.33;14.93;;;;;;;16.13;51.77;94653.63;4948908;29;20511;-72
2021/11/22 08:20:54;;;;;;;16.83;15.25;;;;;;;14.68;56.52;94648.22;4951620;28;20028;-71
2021/11/22 08:23:20;;;;;;;16.25;14.55;;;;;;;15.52;54.66;94639.53;4948980;29;20031;-71
2021/11/22 08:25:45;;;;;;;15.23;14.02;;;;;;;16.29;51.52;94645.28;4950039;29;20427;-70
2021/11/22 08:28:11;;;;;;;15.65;14.45;;;;;;;15.39;54.60;94637.78;4950562;28;20386;-71
2021/11/22 08:30:37;;;;;;;15.75;14.32;;;;;;;16.81;50.24;94643.25;4950956;28;20024;-71
2021/11/22 08:33:03;;;;;;;16.08;14.57;;;;;;;16.59;50.66;94642.84;4951323;28;20037;-70
2021/11/22 08:35:31;;;;;;;16.63;15.02;;;;;;;16.05;52.57;94643.47;4956802;28;20031;-70
2021/11/22 08:37:58;;;;;;;14.88;13.70;;;;;;;16.01;52.99;94636.25;4969364;28;20113;-70
2021/11/22 08:40:24;;;;;;;18.92;17.23;;;;;;;16.80;51.46;94644.25;4967497;28;20042;-71
2021/11/22 08:42:50;;;;;;;18.90;17.13;;;;;;;17.02;50.89;94634.97;4969260;28;20031;-71
2021/11/22 08:45:17;;;;;;;22.45;18.20;;;;;;;18.21;49.01;94635.03;4967867;28;20131;-71
2021/11/22 08:47:42;;;;;;;20.77;18.63;;;;;;;17.57;49.21;94635.75;4970525;28;20106;-70
2021/11/22 08:50:09;;;;;;;19.50;16.77;;;;;;;17.52;49.00;94640.03;4969790;28;20034;-71
2021/11/22 08:52:35;;;;;;;19.13;16.80;;;;;;;17.86;48.73;94626.28;4952150;28;20026;-71
2021/11/22 08:55:01;;;;;;;16.38;14.90;;;;;;;17.87;49.02;94628.69;4968538;28;20388;-71
2021/11/22 08:57:26;;;;;;;16.50;14.95;;;;;;;18.42;47.27;94631.09;4967620;28;20034;-71
2021/11/22 08:59:52;;;;;;;14.43;13.20;;;;;;;18.27;47.70;94628.88;4952712;28;20035;-70
2021/11/22 09:02:21;;;;;;;15.20;13.65;;;;;;;18.62;46.67;94625.53;4950749;28;20047;-71
2021/11/22 09:04:48;;;;;;;15.85;14.23;;;;;;;18.62;46.55;94622.91;4964565;28;20503;-70
2021/11/22 09:07:13;;;;;;;15.55;14.20;;;;;;;17.69;47.97;94625.34;4941290;28;20114;-71
2021/11/22 09:09:39;;;;;;;17.38;15.55;;;;;;;17.92;48.51;94623.56;4969370;28;20109;-70
2021/11/22 09:12:04;;;;;;;16.83;15.48;;;;;;;17.53;48.54;94618.84;4968743;28;20023;-70
2021/11/22 09:14:30;;;;;;;17.98;16.27;;;;;;;17.60;48.95;94616.16;4968424;28;20529;-71
2021/11/22 09:16:55;;;;;;;17.80;16.30;;;;;;;18.16;47.71;94610.53;4970424;28;20027;-70
2021/11/22 09:19:21;;;;;;;17.38;15.90;;;;;;;18.10;48.04;94614.06;4966625;28;20027;-71
2021/11/22 09:21:46;;;;;;;18.08;16.58;;;;;;;18.01;47.76;94616.22;4968100;28;20090;-71
2021/11/22 09:24:12;;;;;;;19.08;17.08;;;;;;;17.50;49.14;94615.88;4966669;28;20126;-70
2021/11/22 09:26:37;;;;;;;19.05;17.25;;;;;;;17.66;48.33;94616.06;4968451;28;20030;-71
2021/11/22 09:29:05;;;;;;;17.33;15.93;;;;;;;18.15;47.54;94599.22;4967683;28;20038;-71
2021/11/22 09:31:30;;;;;;;18.17;16.55;;;;;;;16.74;51.28;94608.50;4968588;28;20514;-70
2021/11/22 09:33:56;;;;;;;20.60;18.50;;;;;;;17.19;50.24;94609.81;4968544;28;20023;-70
2021/11/22 09:36:22;;;;;;;22.63;20.42;;;;;;;15.98;53.16;94611.34;4967709;28;20027;-70
2021/11/22 09:38:49;;;;;;;25.13;20.60;;;;;;;16.85;51.39;94613.03;4967834;28;20033;-70
2021/11/22 09:41:15;;;;;;;22.52;20.25;;;;;;;16.00;52.94;94613.75;4948612;28;20035;-70
2021/11/22 09:43:46;;;;;;;20.25;18.42;;;;;;;15.86;53.30;94612.25;4949155;29;20047;-70
2021/11/22 09:46:12;;;;;;;22.98;20.67;;;;;;;15.27;56.06;94618.56;4948252;29;20059;-70
2021/11/22 09:48:38;;;;;;;24.58;20.92;;;;;;;15.04;56.74;94613.84;4948475;29;20485;-70
2021/11/22 09:51:04;;;;;;;28.63;25.60;;;;;;;15.35;55.65;94617.53;4948888;29;20126;-70
2021/11/22 09:53:29;;;;;;;29.83;26.00;;;;;;;16.50;52.15;94614.56;4931299;29;20079;-70
2021/11/22 09:55:55;;;;;;;25.50;22.77;;;;;;;17.26;50.19;94610.53;4932576;29;20101;-70
2021/11/22 09:58:21;;;;;;;26.58;23.80;;;;;;;17.31;50.07;94602.81;4947281;29;20576;-70
2021/11/22 10:00:50;;;;;;;23.15;20.85;;;;;;;16.56;50.99;94600.66;4948488;29;20033;-71
2021/11/22 10:03:21;;;;;;;25.42;20.10;;;;;;;15.43;54.76;94602.44;4947719;29;20031;-70
2021/11/22 10:05:47;;;;;;;22.23;19.85;;;;;;;14.48;58.67;94597.91;4945835;28;20421;-70
2021/11/22 10:08:15;;;;;;;19.05;17.17;;;;;;;14.83;57.58;94595.84;4951222;28;20135;-70
2021/11/22 10:10:42;;;;;;;21.27;18.20;;;;;;;13.81;61.93;94584.31;4931255;29;20019;-71
2021/11/22 10:13:27;;;;;;;18.92;15.68;;;;;;;13.59;61.61;94596.69;4950160;29;20062;-70
2021/11/22 10:16:00;;;;;;;17.20;14.32;;;;;;;13.31;62.41;94593.44;4948462;28;20046;-70
2021/11/22 10:18:28;;;;;;;16.67;15.07;;;;;;;13.87;61.68;94586.91;4948084;28;20031;-70
2021/11/22 10:20:54;;;;;;;17.08;15.27;;;;;;;13.27;63.29;94587.81;4952882;28;20061;-70
2021/11/22 10:23:25;;;;;;;16.23;14.55;;;;;;;13.60;62.39;94585.28;4967019;28;20106;-70
2021/11/22 10:25:51;;;;;;;17.60;15.50;;;;;;;13.07;64.25;94582.53;4968004;28;20027;-70
2021/11/22 10:28:29;;;;;;;18.77;15.15;;;;;;;12.96;64.41;94577.91;4966162;28;20035;-70
2021/11/22 10:31:00;;;;;;;15.45;13.88;;;;;;;13.55;62.25;94572.09;4967919;28;20035;-71
2021/11/22 10:33:28;;;;;;;20.13;16.30;;;;;;;13.69;61.54;94561.50;4950911;28;20507;-71
2021/11/22 10:35:57;;;;;;;24.27;17.92;;;;;;;13.13;65.12;94565.41;4972329;28;20106;-70
2021/11/22 10:38:25;;;;;;;16.67;14.88;;;;;;;12.62;65.91;94565.75;4956360;28;20046;-70
2021/11/22 10:41:16;;;;;;;19.70;16.25;;;;;;;12.80;64.63;94562.66;4970415;28;20031;-71
2021/11/22 10:43:51;;;;;;;19.48;16.85;;;;;;;12.67;66.47;94560.78;4972128;28;20044;-71
2021/11/22 10:46:25;;;;;;;19.35;17.20;;;;;;;12.53;66.19;94559.09;4970118;28;20023;-71
2021/11/22 10:48:52;;;;;;;22.42;16.77;;;;;;;12.81;66.57;94555.66;4971251;28;20058;-71
2021/11/22 10:51:27;;;;;;;22.42;17.17;;;;;;;12.73;66.07;94551.41;4963720;28;20022;-71
2021/11/22 10:54:20;;;;;;;21.55;17.70;;;;;;;12.75;65.54;94554.59;4950465;29;20039;-71
2021/11/22 10:56:49;;;;;;;21.88;18.30;;;;;;;12.86;65.23;94558.47;4968734;28;20042;-72
2021/11/22 10:59:20;;;;;;;22.05;17.13;;;;;;;12.65;66.45;94560.16;4970947;28;20097;-71
2021/11/22 11:01:51;;;;;;;24.83;17.17;;;;;;;12.46;66.30;94552.25;4970369;28;20058;-70
2021/11/22 11:04:31;;;;;;;25.42;18.52;;;;;;;12.50;67.30;94551.69;4970688;28;20033;-70
2021/11/22 11:07:05;;;;;;;20.35;15.88;;;;;;;12.27;66.99;94551.16;4969712;28;20026;-70
2021/11/22 11:09:33;;;;;;;22.73;17.95;;;;;;;12.30;69.10;94549.97;4971952;28;20066;-70
2021/11/22 11:12:01;;;;;;;19.65;14.90;;;;;;;12.52;68.40;94554.91;4969162;28;20035;-71
2021/11/22 11:14:29;;;;;;;16.42;14.45;;;;;;;12.64;68.19;94558.56;4972045;28;20475;-70
2021/11/22 11:16:54;;;;;;;16.75;14.00;;;;;;;12.47;67.58;94552.09;4954133;28;20490;-70
2021/11/22 11:19:20;;;;;;;142.80;65.18;;;;;;;12.43;67.71;94553.47;4953865;28;20109;-70
2021/11/22 11:21:47;;;;;;;39.83;24.27;;;;;;;12.58;66.74;94554.16;4970065;28;20034;-71
2021/11/22 11:24:15;;;;;;;22.00;14.80;;;;;;;12.45;68.16;94551.50;4969042;28;20035;-70
2021/11/22 11:26:41;;;;;;;41.08;21.77;;;;;;;12.60;66.16;94543.56;4955049;28;20079;-70
2021/11/22 11:29:08;;;;;;;71.88;37.70;;;;;;;12.83;66.46;94543.25;4951199;29;20070;-71
2021/11/22 11:31:35;;;;;;;223.43;97.20;;;;;;;12.78;66.42;94545.66;4951058;29;20136;-71
2021/11/22 11:34:04;;;;;;;67.93;32.08;;;;;;;12.71;67.19;94545.63;4934459;29;20033;-70
2021/11/22 11:36:59;;;;;;;86.32;39.08;;;;;;;12.85;66.12;94549.03;4950648;29;20027;-71
2021/11/22 11:39:27;;;;;;;36.85;21.88;;;;;;;12.97;66.52;94545.69;4954594;28;20023;-70
2021/11/22 11:42:10;;;;;;;41.92;22.00;;;;;;;12.96;66.47;94551.91;4950602;28;20035;-70
2021/11/22 11:44:39;;;;;;;22.00;14.55;;;;;;;13.06;66.48;94549.75;4950807;28;20034;-71
2021/11/22 11:47:19;;;;;;;16.52;14.35;;;;;;;12.92;65.25;94550.69;4950854;29;20114;-71
2021/11/22 11:49:45;;;;;;;16.38;13.65;;;;;;;13.09;65.88;94544.19;4951186;29;20027;-71
2021/11/22 11:52:27;;;;;;;22.00;15.82;;;;;;;13.34;64.97;94543.63;4934912;29;20440;-71
2021/11/22 11:54:55;;;;;;;13.25;11.18;;;;;;;12.95;66.44;94545.09;4950387;28;20420;-70
2021/11/22 11:57:25;;;;;;;14.95;11.32;;;;;;;12.79;66.88;94548.03;4935027;29;20405;-70
2021/11/22 11:59:51;;;;;;;13.60;10.48;;;;;;;12.60;66.57;94543.56;4949182;29;20110;-70
2021/11/22 12:02:17;;;;;;;13.40;10.95;;;;;;;12.69;66.08;94545.00;4950117;29;20424;-70
2021/11/22 12:04:49;;;;;;;19.95;14.68;;;;;;;12.80;65.87;94551.44;4951150;28;20037;-71
2021/11/22 12:07:38;;;;;;;17.45;13.48;;;;;;;12.75;66.64;94546.81;4958413;28;20424;-71
2021/11/22 12:10:27;;;;;;;20.80;13.33;;;;;;;12.49;68.13;94546.72;4969998;28;20435;-70
2021/11/22 12:13:14;;;;;;;17.63;13.43;;;;;;;12.79;67.30;94555.03;4968540;28;20466;-70
2021/11/22 12:15:39;;;;;;;16.67;14.20;;;;;;;12.57;68.14;94562.94;4968506;28;20050;-70
2021/11/22 12:18:09;;;;;;;15.73;14.13;;;;;;;12.72;68.74;94560.19;4971429;28;20023;-70
2021/11/22 12:20:35;;;;;;;;;;;;;;;12.62;67.75;94550.16;4969971;28;20035;-70
2021/11/22 12:23:13;;;;;;;19.33;13.20;;;;;;;12.56;69.08;94552.72;4968212;28;19985;-70
2021/11/22 12:25:39;;;;;;;18.83;13.27;;;;;;;12.59;68.73;94547.13;4955190;28;20412;-70
2021/11/22 12:28:07;;;;;;;18.05;12.57;;;;;;;12.39;69.00;94549.66;4969899;28;20027;-71
2021/11/22 12:30:33;;;;;;;15.13;12.30;;;;;;;12.46;69.46;94549.66;4952399;28;20045;-71
2021/11/22 12:33:20;;;;;;;15.40;11.90;;;;;;;12.38;69.47;94550.66;4968851;28;20408;-71
2021/11/22 12:35:51;;;;;;;18.55;11.43;;;;;;;12.43;68.85;94563.84;4970164;28;20125;-71
2021/11/22 12:38:25;;;;;;;16.20;13.80;;;;;;;12.21;70.27;94564.09;4966923;28;20118;-71
2021/11/22 12:40:53;;;;;;;17.92;13.70;;;;;;;12.18;71.04;94560.09;4933229;29;20031;-71
2021/11/22 12:43:47;;;;;;;19.50;13.18;;;;;;;12.00;71.31;94562.38;4948603;29;20034;-70
2021/11/22 12:46:15;;;;;;;14.20;12.90;;;;;;;11.97;72.16;94565.34;4947801;29;20556;-70
2021/11/22 12:48:43;;;;;;;19.98;14.82;;;;;;;12.01;71.90;94564.78;4949851;29;20420;-70
2021/11/22 12:51:10;;;;;;;17.60;13.75;;;;;;;12.01;71.74;94567.38;4947231;29;20031;-70
2021/11/22 12:53:37;;;;;;;22.40;16.58;;;;;;;11.96;71.67;94567.16;4933400;29;20038;-70
2021/11/22 12:56:04;;;;;;;18.70;14.35;;;;;;;12.00;71.13;94562.38;4947183;29;20041;-70
2021/11/22 12:58:32;;;;;;;21.65;15.57;;;;;;;11.98;70.79;94556.56;4932164;29;20510;-70
2021/11/22 13:01:02;;;;;;;21.10;15.70;;;;;;;11.96;70.42;94554.16;4947269;29;20058;-70
2021/11/22 13:03:29;;;;;;;20.30;15.93;;;;;;;11.85;71.09;94570.25;4931233;28;20023;-71
2021/11/22 13:05:56;;;;;;;19.30;17.17;;;;;;;11.94;71.68;94563.16;4956297;28;20092;-70
2021/11/22 13:08:22;;;;;;;22.25;15.90;;;;;;;11.94;70.60;94560.53;4959704;28;20553;-70
2021/11/22 13:10:54;;;;;;;20.00;15.80;;;;;;;11.78;71.64;94559.03;4949565;28;20055;-71
2021/11/22 13:16:16;;;;;;;17.40;14.48;;;;;;;11.77;73.33;94552.22;4956217;28;20030;-71
2021/11/22 13:19:03;;;;;;;23.00;15.05;;;;;;;11.79;72.29;94555.44;4969905;28;20507;-73
2021/11/22 13:21:35;;;;;;;19.75;14.73;;;;;;;11.64;72.37;94552.91;4966428;28;20091;-71
2021/11/22 13:24:14;;;;;;;17.27;15.48;;;;;;;11.47;72.66;94551.53;4953269;28;20076;-71
2021/11/22 13:26:43;;;;;;;22.50;14.98;;;;;;;11.56;73.26;94552.22;4962639;28;20035;-71
2021/11/22 13:29:13;;;;;;;30.58;16.30;;;;;;;11.53;73.76;94549.97;4947876;29;20038;-71
2021/11/22 13:31:45;;;;;;;25.98;15.95;;;;;;;11.53;73.32;94539.63;4954611;28;20027;-71
2021/11/22 13:34:14;;;;;;;24.42;16.70;;;;;;;11.25;74.83;94543.94;4958601;28;20088;-71
2021/11/22 13:36:47;;;;;;;23.55;15.25;;;;;;;11.30;74.32;94552.75;4950711;28;20096;-71
2021/11/22 13:39:36;;;;;;;22.02;15.95;;;;;;;11.32;74.30;94544.81;4946456;29;20027;-71
2021/11/22 13:42:12;;;;;;;;;;;;;;;11.41;74.56;94546.28;4965612;28;20104;-71
2021/11/22 13:44:58;;;;;;;23.30;17.08;;;;;;;11.38;74.67;94542.28;4969138;28;19929;-71
2021/11/22 13:47:27;;;;;;;23.50;16.55;;;;;;;11.18;75.65;94543.06;4965906;28;20602;-71
2021/11/22 13:49:55;;;;;;;19.95;16.27;;;;;;;11.16;75.37;94540.69;4948809;28;20051;-71
2021/11/22 13:52:23;;;;;;;25.63;17.65;;;;;;;11.25;74.87;94543.94;4962285;28;20130;-71
2021/11/22 13:54:49;;;;;;;23.20;16.38;;;;;;;11.05;75.72;94539.38;4967352;28;20813;-71
2021/11/22 13:57:15;;;;;;;23.90;17.92;;;;;;;11.19;75.32;94537.72;4948478;28;20035;-71
2021/11/22 13:59:44;;;;;;;26.15;16.77;;;;;;;11.09;76.11;94543.19;4960326;28;20908;-71
2021/11/22 14:02:13;;;;;;;25.08;18.00;;;;;;;11.17;76.31;94544.09;4967501;28;20050;-71
2021/11/22 14:04:45;;;;;;;23.90;17.42;;;;;;;11.09;77.46;94542.41;4963539;28;20165;-71
2021/11/22 14:07:35;;;;;;;28.33;18.92;;;;;;;10.88;77.82;94534.59;4966967;28;20039;-71
2021/11/22 14:10:00;;;;;;;23.88;18.08;;;;;;;10.84;78.88;94543.72;4957628;28;20051;-72
2021/11/22 14:12:31;;;;;;;22.98;18.30;;;;;;;10.66;80.24;94544.09;4952268;28;20042;-71
2021/11/22 14:14:58;;;;;;;21.23;17.90;;;;;;;10.60;80.64;94547.41;4968851;28;20088;-71
2021/11/22 14:17:24;;;;;;;25.05;17.55;;;;;;;10.59;80.36;94538.06;4969528;28;20023;-70
2021/11/22 14:20:10;;;;;;;27.38;19.70;;;;;;;10.18;82.60;94544.69;4971378;28;20502;-71
2021/11/22 14:22:45;;;;;;;25.23;17.75;;;;;;;9.97;84.43;94535.81;4970146;28;20105;-70
2021/11/22 14:25:22;;;;;;;26.10;19.40;;;;;;;10.11;83.48;94541.19;4970864;28;20026;-70
2021/11/22 14:27:48;;;;;;;24.10;19.67;;;;;;;10.04;83.60;94541.09;4972719;28;20031;-71
2021/11/22 14:30:16;;;;;;;30.17;18.63;;;;;;;10.10;83.59;94526.63;4946996;29;20023;-72
2021/11/22 14:32:44;;;;;;;30.40;19.45;;;;;;;9.95;83.48;94531.81;4957120;28;20034;-72
2021/11/22 14:35:17;;;;;;;24.48;18.42;;;;;;;9.81;84.17;94530.81;4952705;28;20035;-71
2021/11/22 14:37:44;;;;;;;32.60;19.55;;;;;;;9.81;84.66;94537.75;4970876;28;20563;-71
2021/11/22 14:40:11;;;;;;;26.50;19.23;;;;;;;9.66;85.42;94526.59;4971018;28;20061;-71
2021/11/22 14:42:36;;;;;;;31.40;24.13;;;;;;;9.70;86.55;94518.28;4956737;28;20560;-72
2021/11/22 14:45:05;;;;;;;32.63;25.05;;;;;;;9.60;87.77;94512.56;4959953;28;20106;-71
2021/11/22 14:47:33;;;;;;;59.42;37.20;;;;;;;9.54;87.44;94526.19;4967988;28;20499;-71
2021/11/22 14:50:21;;;;;;;31.35;18.75;;;;;;;9.37;88.30;94527.31;4961149;28;20034;-71
2021/11/22 14:53:13;;;;;;;27.10;19.85;;;;;;;9.41;88.49;94533.72;4969760;28;20034;-71
2021/11/22 14:55:40;;;;;;;27.80;20.48;;;;;;;9.20;89.60;94523.25;4969196;28;20129;-71
2021/11/22 14:58:05;;;;;;;25.23;19.60;;;;;;;9.24;89.99;94525.31;4953949;28;20058;-71
2021/11/22 15:00:34;;;;;;;21.40;18.23;;;;;;;9.30;90.32;94518.66;4967269;28;20129;-71
2021/11/22 15:03:21;;;;;;;24.42;19.15;;;;;;;9.06;90.49;94523.97;4967414;28;20046;-71
2021/11/22 15:05:46;;;;;;;23.67;17.60;;;;;;;8.92;91.59;94530.72;4959612;28;20445;-71
2021/11/22 15:08:21;;;;;;;30.83;20.73;;;;;;;8.89;92.73;94541.38;4967128;28;20035;-71
2021/11/22 15:10:54;;;;;;;35.50;24.80;;;;;;;8.73;94.36;94544.06;4967859;28;20511;-72
2021/11/22 15:13:20;;;;;;;28.52;19.63;;;;;;;8.81;94.65;94539.63;4956661;28;20113;-71
2021/11/22 15:15:45;;;;;;;26.52;18.27;;;;;;;8.81;93.98;94531.88;4954774;28;20110;-71
2021/11/22 15:18:11;;;;;;;33.38;21.85;;;;;;;8.86;93.31;94541.72;4949085;28;20035;-71
2021/11/22 15:20:36;;;;;;;28.42;22.98;;;;;;;8.82;93.19;94527.53;4961735;28;20500;-71
2021/11/22 15:23:02;;;;;;;36.17;27.60;;;;;;;8.78;93.11;94531.44;4968180;28;20079;-70
2021/11/22 15:25:28;;;;;;;31.95;23.88;;;;;;;8.70;93.74;94544.38;4969207;28;20033;-71
2021/11/22 15:28:01;;;;;;;34.30;23.27;;;;;;;8.53;94.88;94542.84;4967435;28;20118;-71
2021/11/22 15:30:26;;;;;;;55.80;35.55;;;;;;;8.56;94.67;94548.47;4953129;28;20504;-71
2021/11/22 15:32:52;;;;;;;48.28;32.92;;;;;;;8.56;94.34;94545.91;4967597;28;20031;-71
2021/11/22 15:35:19;;;;;;;63.13;42.75;;;;;;;8.53;94.79;94543.66;4946981;28;20118;-71
2021/11/22 15:37:44;;;;;;;54.92;34.45;;;;;;;8.57;94.42;94552.69;4953934;28;20027;-71
2021/11/22 15:40:11;;;;;;;76.45;31.35;;;;;;;8.60;94.13;94546.38;4965194;28;20031;-71
2021/11/22 15:42:37;;;;;;;35.72;26.17;;;;;;;8.50;94.55;94553.50;4952160;28;20492;-71
2021/11/22 15:45:05;;;;;;;34.63;24.25;;;;;;;8.40;95.07;94551.13;4941034;28;20056;-71
2021/11/22 15:47:32;;;;;;;25.63;17.92;;;;;;;8.47;94.63;94552.06;4966148;28;20038;-71
2021/11/22 15:49:57;;;;;;;19.85;17.13;;;;;;;8.37;94.71;94554.84;4967890;28;20054;-71
2021/11/22 15:52:23;;;;;;;25.90;18.52;;;;;;;8.23;95.74;94552.94;4965694;28;20182;-71
2021/11/22 15:54:48;;;;;;;25.63;21.77;;;;;;;8.29;95.12;94554.88;4962822;28;20472;-71
2021/11/22 15:57:14;;;;;;;35.47;24.10;;;;;;;8.36;94.18;94558.41;4965697;28;20030;-71
2021/11/22 15:59:40;;;;;;;39.17;28.73;;;;;;;8.29;94.98;94556.63;4965845;28;20412;-71
2021/11/22 16:02:05;;;;;;;41.38;28.77;;;;;;;8.25;94.91;94560.50;4942369;28;20047;-71
2021/11/22 16:04:31;;;;;;;39.00;27.38;;;;;;;8.30;95.12;94559.06;4949548;28;20030;-70
2021/11/22 16:06:56;;;;;;;46.45;30.80;;;;;;;8.32;94.97;94564.84;4955611;28;20567;-71
2021/11/22 16:09:26;;;;;;;49.55;32.67;;;;;;;8.27;94.80;94568.88;4954151;28;20042;-75
2021/11/22 16:11:54;;;;;;;33.42;23.92;;;;;;;8.16;95.19;94579.53;4963186;28;20089;-71
2021/11/22 16:14:21;;;;;;;25.13;18.08;;;;;;;8.00;96.01;94571.84;4956189;28;20038;-70
2021/11/22 16:16:47;;;;;;;28.98;18.73;;;;;;;7.86;96.28;94581.06;4956747;28;20611;-71
2021/11/22 16:19:13;;;;;;;36.78;23.38;;;;;;;7.85;96.47;94569.13;4965605;28;20030;-71
2021/11/22 16:21:40;;;;;;;38.20;24.70;;;;;;;7.74;97.05;94572.03;4967830;28;20030;-71
2021/11/22 16:24:06;;;;;;;44.15;28.52;;;;;;;7.78;97.21;94573.31;4966440;28;20177;-71
2021/11/22 16:26:34;;;;;;;45.78;29.10;;;;;;;7.81;96.67;94576.38;4945941;29;20059;-71
2021/11/22 16:29:00;;;;;;;51.70;31.90;;;;;;;7.72;96.89;94581.72;4954531;28;20026;-71
2021/11/22 16:31:27;;;;;;;42.13;29.98;;;;;;;7.85;96.47;94577.69;4959994;28;20043;-71